Erie, Minnesota
Current Conditions -  °F | °C
As of 8:35 PM on Wednesday 26 Nov 2014 (Local Time) from KTVF Reporting Station
Clear Clear  
Wind Chill: -32°   Ceiling: Unl
Heat Index: -22°   Visibility: 10mi
Dew Point: -24°   Wind: 10mph
Humidity: 84%   Direction: 340°NNW
Pressure: 30.48"   Gusts: NA
Location:  48.0638°N, 95.6851°W
Report Text: KTVF 270235Z AUTO 34009KT 10SM CLR M22/M24 A3048 RMK AO1
Loading
Personal Weather Stations






























Interactive Weather Map New forecast layout! Learn more

10-Day Weather Forecast

Advertisements
Track Severe Weather on mobile